sensor_id;sensor_type;location;lat;lon;timestamp;P1;durP1;ratioP1;P2;durP2;ratioP2
66619;SDS011;53484;51.356;6.732;2023-03-16T00:02:12;9.40;;;3.75;;
66619;SDS011;53484;51.356;6.732;2023-03-16T00:04:38;7.70;;;3.10;;
66619;SDS011;53484;51.356;6.732;2023-03-16T00:07:05;9.32;;;3.08;;
66619;SDS011;53484;51.356;6.732;2023-03-16T00:09:31;7.10;;;3.13;;
66619;SDS011;53484;51.356;6.732;2023-03-16T00:11:57;9.68;;;3.30;;
66619;SDS011;53484;51.356;6.732;2023-03-16T00:14:25;9.70;;;3.45;;
66619;SDS011;53484;51.356;6.732;2023-03-16T00:16:52;7.70;;;3.20;;
66619;SDS011;53484;51.356;6.732;2023-03-16T00:19:18;8.48;;;3.40;;
66619;SDS011;53484;51.356;6.732;2023-03-16T00:21:46;7.97;;;3.70;;
66619;SDS011;53484;51.356;6.732;2023-03-16T00:24:13;9.10;;;3.20;;
66619;SDS011;53484;51.356;6.732;2023-03-16T00:26:42;8.00;;;3.40;;
66619;SDS011;53484;51.356;6.732;2023-03-16T00:29:08;7.43;;;3.17;;
66619;SDS011;53484;51.356;6.732;2023-03-16T00:31:37;8.48;;;3.08;;
66619;SDS011;53484;51.356;6.732;2023-03-16T00:34:03;9.20;;;4.05;;
66619;SDS011;53484;51.356;6.732;2023-03-16T00:36:29;8.05;;;3.00;;
66619;SDS011;53484;51.356;6.732;2023-03-16T00:38:58;9.10;;;3.22;;
66619;SDS011;53484;51.356;6.732;2023-03-16T00:41:24;10.27;;;3.10;;
66619;SDS011;53484;51.356;6.732;2023-03-16T00:43:50;8.20;;;3.17;;
66619;SDS011;53484;51.356;6.732;2023-03-16T00:46:17;7.75;;;3.17;;
66619;SDS011;53484;51.356;6.732;2023-03-16T00:48:45;7.78;;;3.17;;
66619;SDS011;53484;51.356;6.732;2023-03-16T00:51:12;13.32;;;3.53;;
66619;SDS011;53484;51.356;6.732;2023-03-16T00:53:39;14.63;;;3.70;;
66619;SDS011;53484;51.356;6.732;2023-03-16T00:56:06;9.07;;;3.17;;
66619;SDS011;53484;51.356;6.732;2023-03-16T00:58:33;7.50;;;3.40;;
66619;SDS011;53484;51.356;6.732;2023-03-16T01:01:00;7.18;;;3.00;;
66619;SDS011;53484;51.356;6.732;2023-03-16T01:03:27;8.90;;;3.53;;
66619;SDS011;53484;51.356;6.732;2023-03-16T01:05:54;10.23;;;3.47;;
66619;SDS011;53484;51.356;6.732;2023-03-16T01:08:24;8.38;;;3.40;;
66619;SDS011;53484;51.356;6.732;2023-03-16T01:10:51;6.07;;;3.17;;
66619;SDS011;53484;51.356;6.732;2023-03-16T01:13:18;7.72;;;3.22;;
66619;SDS011;53484;51.356;6.732;2023-03-16T01:15:44;6.70;;;3.15;;
66619;SDS011;53484;51.356;6.732;2023-03-16T01:18:11;6.40;;;2.90;;
66619;SDS011;53484;51.356;6.732;2023-03-16T01:20:38;7.88;;;3.40;;
66619;SDS011;53484;51.356;6.732;2023-03-16T01:23:06;9.35;;;3.55;;
66619;SDS011;53484;51.356;6.732;2023-03-16T01:25:32;6.75;;;3.00;;
66619;SDS011;53484;51.356;6.732;2023-03-16T01:27:58;8.63;;;3.40;;
66619;SDS011;53484;51.356;6.732;2023-03-16T01:30:25;7.70;;;2.97;;
66619;SDS011;53484;51.356;6.732;2023-03-16T01:32:52;7.55;;;3.42;;
66619;SDS011;53484;51.356;6.732;2023-03-16T01:35:18;6.43;;;3.03;;
66619;SDS011;53484;51.356;6.732;2023-03-16T01:37:45;9.52;;;3.50;;
66619;SDS011;53484;51.356;6.732;2023-03-16T01:40:14;7.15;;;3.40;;
66619;SDS011;53484;51.356;6.732;2023-03-16T01:42:43;8.83;;;3.13;;
66619;SDS011;53484;51.356;6.732;2023-03-16T01:47:50;7.65;;;2.90;;
66619;SDS011;53484;51.356;6.732;2023-03-16T01:50:17;6.43;;;2.92;;
66619;SDS011;53484;51.356;6.732;2023-03-16T01:52:43;10.93;;;3.58;;
66619;SDS011;53484;51.356;6.732;2023-03-16T01:55:09;6.60;;;2.67;;
66619;SDS011;53484;51.356;6.732;2023-03-16T01:57:39;6.68;;;2.90;;
66619;SDS011;53484;51.356;6.732;2023-03-16T02:00:08;7.38;;;3.10;;
66619;SDS011;53484;51.356;6.732;2023-03-16T02:02:39;9.93;;;3.00;;
66619;SDS011;53484;51.356;6.732;2023-03-16T02:05:09;6.57;;;2.70;;
66619;SDS011;53484;51.356;6.732;2023-03-16T02:07:39;7.17;;;3.00;;
66619;SDS011;53484;51.356;6.732;2023-03-16T02:10:07;7.68;;;2.55;;
66619;SDS011;53484;51.356;6.732;2023-03-16T02:12:34;6.65;;;3.00;;
66619;SDS011;53484;51.356;6.732;2023-03-16T02:15:02;7.15;;;3.30;;
66619;SDS011;53484;51.356;6.732;2023-03-16T02:17:30;5.95;;;3.05;;
66619;SDS011;53484;51.356;6.732;2023-03-16T02:19:59;8.60;;;3.27;;
66619;SDS011;53484;51.356;6.732;2023-03-16T02:22:29;7.40;;;2.97;;
66619;SDS011;53484;51.356;6.732;2023-03-16T02:25:00;9.43;;;3.03;;
66619;SDS011;53484;51.356;6.732;2023-03-16T02:27:28;6.38;;;2.70;;
66619;SDS011;53484;51.356;6.732;2023-03-16T02:29:59;7.75;;;2.75;;
66619;SDS011;53484;51.356;6.732;2023-03-16T02:32:28;7.37;;;2.40;;
66619;SDS011;53484;51.356;6.732;2023-03-16T02:34:55;5.93;;;2.42;;
66619;SDS011;53484;51.356;6.732;2023-03-16T02:37:23;7.07;;;2.90;;
66619;SDS011;53484;51.356;6.732;2023-03-16T02:39:50;6.20;;;2.80;;
66619;SDS011;53484;51.356;6.732;2023-03-16T02:42:18;7.00;;;2.67;;
66619;SDS011;53484;51.356;6.732;2023-03-16T02:44:46;5.40;;;2.90;;
66619;SDS011;53484;51.356;6.732;2023-03-16T02:47:15;5.57;;;2.63;;
66619;SDS011;53484;51.356;6.732;2023-03-16T02:49:45;7.10;;;2.80;;
66619;SDS011;53484;51.356;6.732;2023-03-16T02:52:11;8.00;;;2.40;;
66619;SDS011;53484;51.356;6.732;2023-03-16T02:54:37;8.35;;;3.20;;
66619;SDS011;53484;51.356;6.732;2023-03-16T02:57:04;6.13;;;2.70;;
66619;SDS011;53484;51.356;6.732;2023-03-16T02:59:30;8.15;;;2.90;;
66619;SDS011;53484;51.356;6.732;2023-03-16T03:01:56;8.90;;;3.50;;
66619;SDS011;53484;51.356;6.732;2023-03-16T03:04:24;6.65;;;3.00;;
66619;SDS011;53484;51.356;6.732;2023-03-16T03:06:50;6.10;;;2.60;;
66619;SDS011;53484;51.356;6.732;2023-03-16T03:09:17;7.53;;;3.13;;
66619;SDS011;53484;51.356;6.732;2023-03-16T03:11:43;6.13;;;2.60;;
66619;SDS011;53484;51.356;6.732;2023-03-16T03:14:11;7.15;;;2.67;;
66619;SDS011;53484;51.356;6.732;2023-03-16T03:16:41;6.95;;;2.53;;
66619;SDS011;53484;51.356;6.732;2023-03-16T03:19:10;6.15;;;2.80;;
66619;SDS011;53484;51.356;6.732;2023-03-16T03:21:38;6.53;;;2.43;;
66619;SDS011;53484;51.356;6.732;2023-03-16T03:24:04;7.72;;;2.90;;
66619;SDS011;53484;51.356;6.732;2023-03-16T03:26:32;5.30;;;2.95;;
66619;SDS011;53484;51.356;6.732;2023-03-16T03:28:58;5.72;;;2.50;;
66619;SDS011;53484;51.356;6.732;2023-03-16T03:31:24;6.38;;;2.30;;
66619;SDS011;53484;51.356;6.732;2023-03-16T03:33:50;5.87;;;2.67;;
66619;SDS011;53484;51.356;6.732;2023-03-16T03:36:17;7.63;;;2.60;;
66619;SDS011;53484;51.356;6.732;2023-03-16T03:38:47;7.38;;;2.67;;
66619;SDS011;53484;51.356;6.732;2023-03-16T03:41:14;5.80;;;2.88;;
66619;SDS011;53484;51.356;6.732;2023-03-16T03:43:40;6.43;;;2.67;;
66619;SDS011;53484;51.356;6.732;2023-03-16T03:46:07;9.10;;;2.63;;
66619;SDS011;53484;51.356;6.732;2023-03-16T03:48:33;5.00;;;2.50;;
66619;SDS011;53484;51.356;6.732;2023-03-16T03:50:59;10.40;;;2.78;;
66619;SDS011;53484;51.356;6.732;2023-03-16T03:53:25;5.20;;;2.55;;
66619;SDS011;53484;51.356;6.732;2023-03-16T03:55:53;8.80;;;2.47;;
66619;SDS011;53484;51.356;6.732;2023-03-16T03:58:19;6.33;;;2.40;;
66619;SDS011;53484;51.356;6.732;2023-03-16T04:00:46;6.65;;;2.50;;
66619;SDS011;53484;51.356;6.732;2023-03-16T04:03:12;6.32;;;2.80;;
66619;SDS011;53484;51.356;6.732;2023-03-16T04:05:39;4.50;;;2.13;;
66619;SDS011;53484;51.356;6.732;2023-03-16T04:08:05;5.55;;;2.50;;
66619;SDS011;53484;51.356;6.732;2023-03-16T04:10:32;5.37;;;2.33;;
66619;SDS011;53484;51.356;6.732;2023-03-16T04:12:59;6.60;;;2.33;;
66619;SDS011;53484;51.356;6.732;2023-03-16T04:15:26;5.32;;;2.30;;
66619;SDS011;53484;51.356;6.732;2023-03-16T04:17:52;5.60;;;2.15;;
66619;SDS011;53484;51.356;6.732;2023-03-16T04:20:18;5.00;;;2.55;;
66619;SDS011;53484;51.356;6.732;2023-03-16T04:22:45;9.70;;;2.70;;
66619;SDS011;53484;51.356;6.732;2023-03-16T04:25:12;5.13;;;2.40;;
66619;SDS011;53484;51.356;6.732;2023-03-16T04:27:39;7.80;;;2.33;;
66619;SDS011;53484;51.356;6.732;2023-03-16T04:30:07;5.15;;;2.33;;
66619;SDS011;53484;51.356;6.732;2023-03-16T04:32:35;8.13;;;2.92;;
66619;SDS011;53484;51.356;6.732;2023-03-16T04:35:01;6.10;;;2.23;;
66619;SDS011;53484;51.356;6.732;2023-03-16T04:37:28;6.07;;;2.63;;
66619;SDS011;53484;51.356;6.732;2023-03-16T04:39:54;5.82;;;2.50;;
66619;SDS011;53484;51.356;6.732;2023-03-16T04:42:21;5.88;;;2.42;;
66619;SDS011;53484;51.356;6.732;2023-03-16T04:44:47;6.05;;;2.78;;
66619;SDS011;53484;51.356;6.732;2023-03-16T04:47:15;7.27;;;2.80;;
66619;SDS011;53484;51.356;6.732;2023-03-16T04:49:42;9.07;;;2.97;;
66619;SDS011;53484;51.356;6.732;2023-03-16T04:52:09;5.57;;;2.88;;
66619;SDS011;53484;51.356;6.732;2023-03-16T04:54:36;5.97;;;2.42;;
66619;SDS011;53484;51.356;6.732;2023-03-16T04:57:02;5.07;;;2.60;;
66619;SDS011;53484;51.356;6.732;2023-03-16T04:59:29;6.27;;;2.70;;
66619;SDS011;53484;51.356;6.732;2023-03-16T05:01:56;6.35;;;3.33;;
66619;SDS011;53484;51.356;6.732;2023-03-16T05:04:23;9.05;;;2.95;;
66619;SDS011;53484;51.356;6.732;2023-03-16T05:06:49;8.13;;;2.90;;
66619;SDS011;53484;51.356;6.732;2023-03-16T05:09:16;5.60;;;2.75;;
66619;SDS011;53484;51.356;6.732;2023-03-16T05:11:44;8.37;;;2.27;;
66619;SDS011;53484;51.356;6.732;2023-03-16T05:14:10;6.28;;;3.15;;
66619;SDS011;53484;51.356;6.732;2023-03-16T05:16:37;9.18;;;3.40;;
66619;SDS011;53484;51.356;6.732;2023-03-16T05:19:03;7.05;;;3.10;;
66619;SDS011;53484;51.356;6.732;2023-03-16T05:21:31;7.63;;;3.60;;
66619;SDS011;53484;51.356;6.732;2023-03-16T05:23:58;10.00;;;3.30;;
66619;SDS011;53484;51.356;6.732;2023-03-16T05:26:24;7.10;;;3.42;;
66619;SDS011;53484;51.356;6.732;2023-03-16T05:28:50;9.65;;;3.17;;
66619;SDS011;53484;51.356;6.732;2023-03-16T05:31:17;7.22;;;3.28;;
66619;SDS011;53484;51.356;6.732;2023-03-16T05:33:43;8.57;;;3.20;;
66619;SDS011;53484;51.356;6.732;2023-03-16T05:36:09;8.17;;;3.10;;
66619;SDS011;53484;51.356;6.732;2023-03-16T05:38:38;8.70;;;3.38;;
66619;SDS011;53484;51.356;6.732;2023-03-16T05:41:04;7.38;;;3.58;;
66619;SDS011;53484;51.356;6.732;2023-03-16T05:43:30;7.65;;;3.30;;
66619;SDS011;53484;51.356;6.732;2023-03-16T05:45:59;9.02;;;4.10;;
66619;SDS011;53484;51.356;6.732;2023-03-16T05:48:25;7.70;;;3.80;;
66619;SDS011;53484;51.356;6.732;2023-03-16T05:50:52;9.93;;;3.97;;
66619;SDS011;53484;51.356;6.732;2023-03-16T05:53:18;8.90;;;4.13;;
66619;SDS011;53484;51.356;6.732;2023-03-16T05:55:51;10.68;;;3.78;;
66619;SDS011;53484;51.356;6.732;2023-03-16T05:58:17;9.57;;;4.13;;
66619;SDS011;53484;51.356;6.732;2023-03-16T06:00:44;8.07;;;3.60;;
66619;SDS011;53484;51.356;6.732;2023-03-16T06:03:10;10.45;;;4.28;;
66619;SDS011;53484;51.356;6.732;2023-03-16T06:05:37;8.73;;;4.13;;
66619;SDS011;53484;51.356;6.732;2023-03-16T06:08:03;11.77;;;4.60;;
66619;SDS011;53484;51.356;6.732;2023-03-16T06:10:30;8.45;;;4.45;;
66619;SDS011;53484;51.356;6.732;2023-03-16T06:12:57;7.50;;;3.87;;
66619;SDS011;53484;51.356;6.732;2023-03-16T06:15:24;9.18;;;3.90;;
66619;SDS011;53484;51.356;6.732;2023-03-16T06:17:51;9.35;;;4.75;;
66619;SDS011;53484;51.356;6.732;2023-03-16T06:20:17;9.90;;;4.68;;
66619;SDS011;53484;51.356;6.732;2023-03-16T06:22:44;8.35;;;4.25;;
66619;SDS011;53484;51.356;6.732;2023-03-16T06:25:11;8.47;;;4.40;;
66619;SDS011;53484;51.356;6.732;2023-03-16T06:27:37;10.20;;;4.13;;
66619;SDS011;53484;51.356;6.732;2023-03-16T06:30:06;11.70;;;4.75;;
66619;SDS011;53484;51.356;6.732;2023-03-16T06:32:32;8.77;;;4.38;;
66619;SDS011;53484;51.356;6.732;2023-03-16T06:34:59;8.65;;;4.45;;
66619;SDS011;53484;51.356;6.732;2023-03-16T06:37:27;9.53;;;3.90;;
66619;SDS011;53484;51.356;6.732;2023-03-16T06:39:53;10.20;;;3.88;;
66619;SDS011;53484;51.356;6.732;2023-03-16T06:42:20;8.50;;;4.32;;
66619;SDS011;53484;51.356;6.732;2023-03-16T06:44:46;10.38;;;4.00;;
66619;SDS011;53484;51.356;6.732;2023-03-16T06:47:14;10.52;;;4.00;;
66619;SDS011;53484;51.356;6.732;2023-03-16T06:49:40;8.43;;;3.87;;
66619;SDS011;53484;51.356;6.732;2023-03-16T06:52:07;8.45;;;3.95;;
66619;SDS011;53484;51.356;6.732;2023-03-16T06:54:34;8.65;;;4.40;;
66619;SDS011;53484;51.356;6.732;2023-03-16T06:57:01;11.18;;;4.35;;
66619;SDS011;53484;51.356;6.732;2023-03-16T06:59:28;8.45;;;3.88;;
66619;SDS011;53484;51.356;6.732;2023-03-16T07:01:55;13.33;;;4.17;;
66619;SDS011;53484;51.356;6.732;2023-03-16T07:04:22;9.50;;;4.00;;
66619;SDS011;53484;51.356;6.732;2023-03-16T07:06:49;9.30;;;4.20;;
66619;SDS011;53484;51.356;6.732;2023-03-16T07:09:15;12.15;;;4.07;;
66619;SDS011;53484;51.356;6.732;2023-03-16T07:11:41;10.55;;;4.10;;
66619;SDS011;53484;51.356;6.732;2023-03-16T07:14:08;7.90;;;3.90;;
66619;SDS011;53484;51.356;6.732;2023-03-16T07:16:35;8.73;;;3.85;;
66619;SDS011;53484;51.356;6.732;2023-03-16T07:19:02;11.40;;;4.00;;
66619;SDS011;53484;51.356;6.732;2023-03-16T07:21:30;10.18;;;4.05;;
66619;SDS011;53484;51.356;6.732;2023-03-16T07:24:03;9.05;;;4.32;;
66619;SDS011;53484;51.356;6.732;2023-03-16T07:26:29;8.10;;;4.27;;
66619;SDS011;53484;51.356;6.732;2023-03-16T07:28:58;8.70;;;4.43;;
66619;SDS011;53484;51.356;6.732;2023-03-16T07:31:24;10.95;;;4.43;;
66619;SDS011;53484;51.356;6.732;2023-03-16T07:33:50;9.15;;;4.40;;
66619;SDS011;53484;51.356;6.732;2023-03-16T07:36:17;7.53;;;4.18;;
66619;SDS011;53484;51.356;6.732;2023-03-16T07:38:44;9.00;;;4.20;;
66619;SDS011;53484;51.356;6.732;2023-03-16T07:41:11;6.63;;;3.70;;
66619;SDS011;53484;51.356;6.732;2023-03-16T07:43:38;9.55;;;4.43;;
66619;SDS011;53484;51.356;6.732;2023-03-16T07:46:04;10.25;;;4.25;;
66619;SDS011;53484;51.356;6.732;2023-03-16T07:48:30;11.32;;;4.30;;
66619;SDS011;53484;51.356;6.732;2023-03-16T07:50:57;8.07;;;4.00;;
66619;SDS011;53484;51.356;6.732;2023-03-16T07:53:24;10.80;;;4.68;;
66619;SDS011;53484;51.356;6.732;2023-03-16T07:55:51;11.73;;;4.60;;
66619;SDS011;53484;51.356;6.732;2023-03-16T07:58:17;9.23;;;4.10;;
66619;SDS011;53484;51.356;6.732;2023-03-16T08:00:44;9.90;;;4.45;;
66619;SDS011;53484;51.356;6.732;2023-03-16T08:03:10;8.70;;;4.10;;
66619;SDS011;53484;51.356;6.732;2023-03-16T08:05:38;9.63;;;4.45;;
66619;SDS011;53484;51.356;6.732;2023-03-16T08:08:04;8.18;;;4.60;;
66619;SDS011;53484;51.356;6.732;2023-03-16T08:10:33;8.68;;;3.83;;
66619;SDS011;53484;51.356;6.732;2023-03-16T08:13:01;8.73;;;4.35;;
66619;SDS011;53484;51.356;6.732;2023-03-16T08:15:28;10.20;;;3.90;;
66619;SDS011;53484;51.356;6.732;2023-03-16T08:17:57;9.10;;;4.22;;
66619;SDS011;53484;51.356;6.732;2023-03-16T08:20:24;9.73;;;4.18;;
66619;SDS011;53484;51.356;6.732;2023-03-16T08:22:50;9.73;;;4.30;;
66619;SDS011;53484;51.356;6.732;2023-03-16T08:25:17;7.82;;;4.38;;
66619;SDS011;53484;51.356;6.732;2023-03-16T08:27:44;7.97;;;4.00;;
66619;SDS011;53484;51.356;6.732;2023-03-16T08:30:13;8.80;;;4.00;;
66619;SDS011;53484;51.356;6.732;2023-03-16T08:32:39;10.88;;;4.75;;
66619;SDS011;53484;51.356;6.732;2023-03-16T08:35:06;8.25;;;4.50;;
66619;SDS011;53484;51.356;6.732;2023-03-16T08:37:33;9.93;;;4.60;;
66619;SDS011;53484;51.356;6.732;2023-03-16T08:39:59;9.50;;;4.23;;
66619;SDS011;53484;51.356;6.732;2023-03-16T08:42:26;9.63;;;4.15;;
66619;SDS011;53484;51.356;6.732;2023-03-16T08:44:52;9.20;;;4.65;;
66619;SDS011;53484;51.356;6.732;2023-03-16T08:47:21;9.35;;;4.50;;
66619;SDS011;53484;51.356;6.732;2023-03-16T08:49:48;9.68;;;4.30;;
66619;SDS011;53484;51.356;6.732;2023-03-16T08:52:15;9.97;;;4.70;;
66619;SDS011;53484;51.356;6.732;2023-03-16T08:54:41;10.52;;;4.53;;
66619;SDS011;53484;51.356;6.732;2023-03-16T08:57:08;9.75;;;4.60;;
66619;SDS011;53484;51.356;6.732;2023-03-16T08:59:34;9.65;;;4.55;;
66619;SDS011;53484;51.356;6.732;2023-03-16T09:02:00;10.15;;;4.45;;
66619;SDS011;53484;51.356;6.732;2023-03-16T09:04:29;10.10;;;4.27;;
66619;SDS011;53484;51.356;6.732;2023-03-16T09:06:56;11.80;;;4.38;;
66619;SDS011;53484;51.356;6.732;2023-03-16T09:09:22;9.25;;;5.00;;
66619;SDS011;53484;51.356;6.732;2023-03-16T09:11:49;9.90;;;4.50;;
66619;SDS011;53484;51.356;6.732;2023-03-16T09:14:16;9.00;;;4.43;;
66619;SDS011;53484;51.356;6.732;2023-03-16T09:16:42;9.20;;;4.47;;
66619;SDS011;53484;51.356;6.732;2023-03-16T09:19:10;9.23;;;4.00;;
66619;SDS011;53484;51.356;6.732;2023-03-16T09:21:38;9.45;;;4.82;;
66619;SDS011;53484;51.356;6.732;2023-03-16T09:24:05;7.70;;;3.83;;
66619;SDS011;53484;51.356;6.732;2023-03-16T09:26:32;10.18;;;5.20;;
66619;SDS011;53484;51.356;6.732;2023-03-16T09:28:59;8.40;;;4.63;;
66619;SDS011;53484;51.356;6.732;2023-03-16T09:31:26;9.52;;;4.78;;
66619;SDS011;53484;51.356;6.732;2023-03-16T09:33:52;12.77;;;4.93;;
66619;SDS011;53484;51.356;6.732;2023-03-16T09:36:18;10.25;;;4.50;;
66619;SDS011;53484;51.356;6.732;2023-03-16T09:38:46;8.05;;;4.68;;
66619;SDS011;53484;51.356;6.732;2023-03-16T09:41:15;9.43;;;4.60;;
66619;SDS011;53484;51.356;6.732;2023-03-16T09:43:47;10.50;;;5.05;;
66619;SDS011;53484;51.356;6.732;2023-03-16T09:46:18;11.30;;;4.85;;
66619;SDS011;53484;51.356;6.732;2023-03-16T09:48:49;12.38;;;5.13;;
66619;SDS011;53484;51.356;6.732;2023-03-16T09:51:17;7.82;;;4.32;;
66619;SDS011;53484;51.356;6.732;2023-03-16T09:53:47;12.87;;;4.60;;
66619;SDS011;53484;51.356;6.732;2023-03-16T09:56:26;11.25;;;4.88;;
66619;SDS011;53484;51.356;6.732;2023-03-16T09:58:54;8.13;;;4.70;;
66619;SDS011;53484;51.356;6.732;2023-03-16T10:01:22;11.52;;;4.18;;
66619;SDS011;53484;51.356;6.732;2023-03-16T10:03:57;7.53;;;4.20;;
66619;SDS011;53484;51.356;6.732;2023-03-16T10:06:26;9.53;;;4.20;;
66619;SDS011;53484;51.356;6.732;2023-03-16T10:08:55;7.47;;;4.03;;
66619;SDS011;53484;51.356;6.732;2023-03-16T10:11:24;7.85;;;3.72;;
66619;SDS011;53484;51.356;6.732;2023-03-16T10:13:53;9.65;;;4.25;;
66619;SDS011;53484;51.356;6.732;2023-03-16T10:16:21;8.57;;;3.75;;
66619;SDS011;53484;51.356;6.732;2023-03-16T10:18:49;8.67;;;3.80;;
66619;SDS011;53484;51.356;6.732;2023-03-16T10:21:17;10.63;;;3.80;;
66619;SDS011;53484;51.356;6.732;2023-03-16T10:23:45;8.25;;;3.55;;
66619;SDS011;53484;51.356;6.732;2023-03-16T10:26:15;8.05;;;3.53;;
66619;SDS011;53484;51.356;6.732;2023-03-16T10:28:42;7.00;;;3.70;;
66619;SDS011;53484;51.356;6.732;2023-03-16T10:31:10;7.93;;;3.90;;
66619;SDS011;53484;51.356;6.732;2023-03-16T10:33:37;9.05;;;3.55;;
66619;SDS011;53484;51.356;6.732;2023-03-16T10:36:04;11.23;;;4.30;;
66619;SDS011;53484;51.356;6.732;2023-03-16T10:38:39;8.40;;;4.00;;
66619;SDS011;53484;51.356;6.732;2023-03-16T10:41:17;9.10;;;4.10;;
66619;SDS011;53484;51.356;6.732;2023-03-16T10:43:45;7.93;;;3.43;;
66619;SDS011;53484;51.356;6.732;2023-03-16T10:46:13;7.75;;;3.80;;
66619;SDS011;53484;51.356;6.732;2023-03-16T10:48:39;8.10;;;3.80;;
66619;SDS011;53484;51.356;6.732;2023-03-16T10:51:07;9.20;;;3.97;;
66619;SDS011;53484;51.356;6.732;2023-03-16T10:53:34;7.82;;;3.72;;
66619;SDS011;53484;51.356;6.732;2023-03-16T10:56:07;8.20;;;4.00;;
66619;SDS011;53484;51.356;6.732;2023-03-16T10:58:39;10.15;;;4.47;;
66619;SDS011;53484;51.356;6.732;2023-03-16T11:01:09;7.53;;;4.35;;
66619;SDS011;53484;51.356;6.732;2023-03-16T11:03:37;7.78;;;3.80;;
66619;SDS011;53484;51.356;6.732;2023-03-16T11:06:04;8.40;;;3.80;;
66619;SDS011;53484;51.356;6.732;2023-03-16T11:08:31;7.33;;;4.00;;
66619;SDS011;53484;51.356;6.732;2023-03-16T11:10:59;8.85;;;3.45;;
66619;SDS011;53484;51.356;6.732;2023-03-16T11:13:30;7.55;;;3.85;;
66619;SDS011;53484;51.356;6.732;2023-03-16T11:15:59;10.70;;;4.70;;
66619;SDS011;53484;51.356;6.732;2023-03-16T11:18:27;6.93;;;3.70;;
66619;SDS011;53484;51.356;6.732;2023-03-16T11:20:55;7.60;;;3.43;;
66619;SDS011;53484;51.356;6.732;2023-03-16T11:23:25;6.43;;;3.42;;
66619;SDS011;53484;51.356;6.732;2023-03-16T11:25:53;6.88;;;4.05;;
66619;SDS011;53484;51.356;6.732;2023-03-16T11:28:23;8.30;;;3.35;;
66619;SDS011;53484;51.356;6.732;2023-03-16T11:30:55;8.00;;;4.10;;
66619;SDS011;53484;51.356;6.732;2023-03-16T11:33:26;8.93;;;3.30;;
66619;SDS011;53484;51.356;6.732;2023-03-16T11:35:56;7.93;;;3.58;;
66619;SDS011;53484;51.356;6.732;2023-03-16T11:38:27;7.03;;;3.50;;
66619;SDS011;53484;51.356;6.732;2023-03-16T11:40:56;8.57;;;3.60;;
66619;SDS011;53484;51.356;6.732;2023-03-16T11:43:34;7.70;;;3.80;;
66619;SDS011;53484;51.356;6.732;2023-03-16T11:46:07;8.57;;;4.20;;
66619;SDS011;53484;51.356;6.732;2023-03-16T11:48:37;6.45;;;3.30;;
66619;SDS011;53484;51.356;6.732;2023-03-16T11:51:05;5.78;;;3.08;;
66619;SDS011;53484;51.356;6.732;2023-03-16T11:53:40;10.63;;;2.95;;
66619;SDS011;53484;51.356;6.732;2023-03-16T11:56:11;7.78;;;3.53;;
66619;SDS011;53484;51.356;6.732;2023-03-16T11:58:42;6.90;;;3.13;;
66619;SDS011;53484;51.356;6.732;2023-03-16T12:01:10;6.57;;;3.00;;
66619;SDS011;53484;51.356;6.732;2023-03-16T12:03:53;6.68;;;3.38;;
66619;SDS011;53484;51.356;6.732;2023-03-16T12:06:30;6.28;;;2.78;;
66619;SDS011;53484;51.356;6.732;2023-03-16T12:09:06;7.18;;;3.25;;
66619;SDS011;53484;51.356;6.732;2023-03-16T12:11:37;5.70;;;2.87;;
66619;SDS011;53484;51.356;6.732;2023-03-16T12:14:12;5.75;;;3.00;;
66619;SDS011;53484;51.356;6.732;2023-03-16T12:16:41;7.53;;;3.50;;
66619;SDS011;53484;51.356;6.732;2023-03-16T12:19:13;7.55;;;2.75;;
66619;SDS011;53484;51.356;6.732;2023-03-16T12:21:42;7.35;;;3.38;;
66619;SDS011;53484;51.356;6.732;2023-03-16T12:24:12;6.03;;;2.60;;
66619;SDS011;53484;51.356;6.732;2023-03-16T12:26:40;5.93;;;2.83;;
66619;SDS011;53484;51.356;6.732;2023-03-16T12:29:11;5.47;;;2.95;;
66619;SDS011;53484;51.356;6.732;2023-03-16T12:31:42;5.20;;;2.70;;
66619;SDS011;53484;51.356;6.732;2023-03-16T12:34:16;7.65;;;3.13;;
66619;SDS011;53484;51.356;6.732;2023-03-16T12:37:04;8.10;;;3.10;;
66619;SDS011;53484;51.356;6.732;2023-03-16T12:39:43;8.35;;;2.78;;
66619;SDS011;53484;51.356;6.732;2023-03-16T12:42:14;5.95;;;3.00;;
66619;SDS011;53484;51.356;6.732;2023-03-16T12:44:47;6.90;;;2.92;;
66619;SDS011;53484;51.356;6.732;2023-03-16T12:47:17;6.90;;;3.30;;
66619;SDS011;53484;51.356;6.732;2023-03-16T12:49:46;6.70;;;2.60;;
66619;SDS011;53484;51.356;6.732;2023-03-16T12:52:14;10.23;;;3.20;;
66619;SDS011;53484;51.356;6.732;2023-03-16T12:54:50;6.32;;;3.00;;
66619;SDS011;53484;51.356;6.732;2023-03-16T12:57:17;8.18;;;2.85;;
66619;SDS011;53484;51.356;6.732;2023-03-16T12:59:45;9.63;;;2.80;;
66619;SDS011;53484;51.356;6.732;2023-03-16T13:02:14;6.80;;;2.40;;
66619;SDS011;53484;51.356;6.732;2023-03-16T13:04:42;6.13;;;2.38;;
66619;SDS011;53484;51.356;6.732;2023-03-16T13:07:14;7.63;;;2.63;;
66619;SDS011;53484;51.356;6.732;2023-03-16T13:09:43;7.78;;;2.92;;
66619;SDS011;53484;51.356;6.732;2023-03-16T13:12:20;7.40;;;3.40;;
66619;SDS011;53484;51.356;6.732;2023-03-16T13:14:46;8.30;;;3.37;;
66619;SDS011;53484;51.356;6.732;2023-03-16T13:17:22;6.13;;;2.95;;
66619;SDS011;53484;51.356;6.732;2023-03-16T13:19:59;7.72;;;2.42;;
66619;SDS011;53484;51.356;6.732;2023-03-16T13:22:28;5.97;;;2.70;;
66619;SDS011;53484;51.356;6.732;2023-03-16T13:24:57;7.55;;;2.50;;
66619;SDS011;53484;51.356;6.732;2023-03-16T13:27:25;7.03;;;3.17;;
66619;SDS011;53484;51.356;6.732;2023-03-16T13:29:53;10.13;;;3.20;;
66619;SDS011;53484;51.356;6.732;2023-03-16T13:32:20;7.05;;;2.80;;
66619;SDS011;53484;51.356;6.732;2023-03-16T13:34:47;5.33;;;2.57;;
66619;SDS011;53484;51.356;6.732;2023-03-16T13:37:14;7.15;;;2.58;;
66619;SDS011;53484;51.356;6.732;2023-03-16T13:39:50;6.90;;;2.57;;
66619;SDS011;53484;51.356;6.732;2023-03-16T13:42:17;5.68;;;2.85;;
66619;SDS011;53484;51.356;6.732;2023-03-16T13:44:44;4.55;;;2.60;;
66619;SDS011;53484;51.356;6.732;2023-03-16T13:47:11;4.80;;;2.00;;
66619;SDS011;53484;51.356;6.732;2023-03-16T13:49:41;5.28;;;2.28;;
66619;SDS011;53484;51.356;6.732;2023-03-16T13:52:10;4.53;;;2.30;;
66619;SDS011;53484;51.356;6.732;2023-03-16T13:54:37;7.18;;;2.20;;
66619;SDS011;53484;51.356;6.732;2023-03-16T13:57:05;6.05;;;2.30;;
66619;SDS011;53484;51.356;6.732;2023-03-16T13:59:33;4.20;;;2.25;;
66619;SDS011;53484;51.356;6.732;2023-03-16T14:02:00;4.78;;;2.28;;
66619;SDS011;53484;51.356;6.732;2023-03-16T14:04:27;6.30;;;2.53;;
66619;SDS011;53484;51.356;6.732;2023-03-16T14:06:55;4.20;;;1.95;;
66619;SDS011;53484;51.356;6.732;2023-03-16T14:09:22;6.75;;;2.10;;
66619;SDS011;53484;51.356;6.732;2023-03-16T14:11:50;5.47;;;1.70;;
66619;SDS011;53484;51.356;6.732;2023-03-16T14:14:22;4.78;;;2.10;;
66619;SDS011;53484;51.356;6.732;2023-03-16T14:16:49;5.77;;;1.83;;
66619;SDS011;53484;51.356;6.732;2023-03-16T14:19:16;10.23;;;1.92;;
66619;SDS011;53484;51.356;6.732;2023-03-16T14:21:44;5.80;;;2.08;;
66619;SDS011;53484;51.356;6.732;2023-03-16T14:24:15;4.70;;;1.50;;
66619;SDS011;53484;51.356;6.732;2023-03-16T14:26:44;5.57;;;1.70;;
66619;SDS011;53484;51.356;6.732;2023-03-16T14:29:13;3.60;;;1.40;;
66619;SDS011;53484;51.356;6.732;2023-03-16T14:31:42;3.92;;;1.60;;
66619;SDS011;53484;51.356;6.732;2023-03-16T14:34:18;5.50;;;1.55;;
66619;SDS011;53484;51.356;6.732;2023-03-16T14:36:45;5.97;;;1.70;;
66619;SDS011;53484;51.356;6.732;2023-03-16T14:39:12;5.25;;;1.55;;
66619;SDS011;53484;51.356;6.732;2023-03-16T14:41:38;4.70;;;1.70;;
66619;SDS011;53484;51.356;6.732;2023-03-16T14:44:05;3.50;;;1.50;;
66619;SDS011;53484;51.356;6.732;2023-03-16T14:46:40;5.50;;;1.80;;
66619;SDS011;53484;51.356;6.732;2023-03-16T14:49:09;5.95;;;1.63;;
66619;SDS011;53484;51.356;6.732;2023-03-16T14:51:42;5.85;;;1.98;;
66619;SDS011;53484;51.356;6.732;2023-03-16T14:54:11;4.27;;;1.70;;